createdAt,value
2019-01-25T00:00:32.475Z,37.67
2019-01-25T00:03:10.210Z,36.23
2019-01-25T00:05:43.717Z,36.87
2019-01-25T00:08:14.842Z,36.57
2019-01-25T00:10:45.618Z,35.53
2019-01-25T00:13:16.446Z,35.10
2019-01-25T00:15:48.883Z,34.60
2019-01-25T00:18:19.559Z,37.03
2019-01-25T00:20:53.577Z,33.40
2019-01-25T00:23:25.939Z,39.47
2019-01-25T00:25:56.606Z,35.53
2019-01-25T00:28:27.768Z,39.37
2019-01-25T00:30:58.577Z,36.23
2019-01-25T00:33:29.198Z,37.93
2019-01-25T00:35:59.898Z,38.07
2019-01-25T00:38:30.622Z,38.00
2019-01-25T00:41:01.298Z,38.80
2019-01-25T00:43:33.361Z,37.57
2019-01-25T00:46:04.035Z,37.20
2019-01-25T00:48:34.854Z,37.43
2019-01-25T00:51:05.873Z,36.17
2019-01-25T00:53:36.703Z,36.90
2019-01-25T00:56:07.862Z,37.07
2019-01-25T00:58:38.511Z,37.77
2019-01-25T01:01:09.895Z,39.53
2019-01-25T01:03:40.753Z,38.63
2019-01-25T01:06:11.629Z,38.20
2019-01-25T01:08:42.493Z,36.20
2019-01-25T01:11:13.478Z,36.60
2019-01-25T01:13:43.954Z,37.43
2019-01-25T01:16:14.664Z,36.53
2019-01-25T01:18:48.442Z,36.83
2019-01-25T01:21:19.498Z,37.30
2019-01-25T01:23:52.974Z,36.20
2019-01-25T01:26:23.936Z,36.83
2019-01-25T01:28:55.010Z,39.43
2019-01-25T01:31:30.099Z,36.03
2019-01-25T01:34:00.887Z,34.83
2019-01-25T01:36:33.516Z,35.47
2019-01-25T01:39:05.526Z,37.83
2019-01-25T01:41:39.194Z,38.77
2019-01-25T01:44:10.323Z,37.13
2019-01-25T01:46:42.415Z,35.63
2019-01-25T01:49:13.292Z,37.00
2019-01-25T01:51:43.991Z,35.67
2019-01-25T01:54:16.275Z,32.43
2019-01-25T01:56:47.047Z,39.03
2019-01-25T01:59:23.904Z,36.43
2019-01-25T02:01:54.893Z,35.03
2019-01-25T02:04:25.694Z,35.80
2019-01-25T02:06:59.553Z,35.80
2019-01-25T02:09:30.266Z,36.47
2019-01-25T02:12:01.446Z,37.87
2019-01-25T02:14:35.309Z,37.70
2019-01-25T02:17:09.181Z,37.17
2019-01-25T02:19:40.217Z,35.23
2019-01-25T02:22:11.720Z,37.60
2019-01-25T02:24:42.472Z,34.47
2019-01-25T02:27:17.604Z,35.50
2019-01-25T02:29:48.886Z,36.20
2019-01-25T02:32:19.593Z,36.70
2019-01-25T02:34:50.668Z,37.20
2019-01-25T02:37:22.620Z,36.67
2019-01-25T02:39:53.285Z,37.47
2019-01-25T02:42:24.112Z,37.57
2019-01-25T02:44:54.875Z,35.17
2019-01-25T02:47:25.767Z,34.57
2019-01-25T02:49:56.639Z,37.97
2019-01-25T02:52:27.994Z,37.40
2019-01-25T02:54:58.838Z,34.60
2019-01-25T02:57:29.568Z,38.40
2019-01-25T03:00:00.383Z,36.53
2019-01-25T03:02:31.418Z,37.07
2019-01-25T03:05:02.288Z,38.90
2019-01-25T03:07:33.596Z,36.70
2019-01-25T03:10:05.394Z,36.53
2019-01-25T03:12:36.356Z,38.73
2019-01-25T03:15:08.632Z,37.93
2019-01-25T03:17:39.469Z,38.97
2019-01-25T03:20:10.571Z,36.90
2019-01-25T03:22:46.877Z,38.17
2019-01-25T03:25:19.730Z,37.90
2019-01-25T03:27:50.395Z,38.37
2019-01-25T03:30:22.334Z,38.07
2019-01-25T03:32:56.161Z,38.20
2019-01-25T03:35:27.447Z,36.90
2019-01-25T03:37:58.548Z,38.97
2019-01-25T03:40:29.723Z,38.60
2019-01-25T03:43:01.833Z,37.00
2019-01-25T03:45:44.530Z,36.17
2019-01-25T03:48:35.681Z,34.50
2019-01-25T03:51:04.353Z,36.60
2019-01-25T03:53:35.142Z,37.17
2019-01-25T03:56:05.972Z,38.83
2019-01-25T03:58:36.746Z,36.90
2019-01-25T04:01:09.499Z,38.17
2019-01-25T04:03:40.259Z,37.83
2019-01-25T04:06:11.159Z,36.10
2019-01-25T04:08:52.266Z,35.43
2019-01-25T04:11:23.153Z,34.93
2019-01-25T04:13:54.190Z,36.37
2019-01-25T04:16:25.025Z,35.87
2019-01-25T04:18:55.645Z,38.63
2019-01-25T04:21:26.400Z,38.57
2019-01-25T04:23:57.272Z,38.30
2019-01-25T04:26:29.460Z,38.13
2019-01-25T04:29:00.637Z,36.17
2019-01-25T04:31:31.265Z,38.83
2019-01-25T04:34:03.114Z,39.10
2019-01-25T04:36:34.364Z,37.00
2019-01-25T04:39:07.464Z,39.20
2019-01-25T04:41:38.194Z,37.67
2019-01-25T04:44:12.078Z,38.97
2019-01-25T04:46:43.301Z,37.40
2019-01-25T04:49:14.128Z,39.47
2019-01-25T04:51:44.726Z,36.53
2019-01-25T04:54:17.063Z,39.10
2019-01-25T04:56:47.698Z,38.90
2019-01-25T04:59:19.008Z,36.17
2019-01-25T05:01:49.747Z,36.50
2019-01-25T05:04:20.305Z,35.87
2019-01-25T05:06:51.111Z,38.37
2019-01-25T05:09:21.795Z,37.00
2019-01-25T05:11:52.334Z,37.03
2019-01-25T05:14:23.481Z,36.00
2019-01-25T05:17:00.082Z,36.13
2019-01-25T05:19:38.660Z,35.23
2019-01-25T05:22:09.304Z,37.13
2019-01-25T05:24:40.151Z,37.93
2019-01-25T05:27:12.621Z,37.43
2019-01-25T05:29:52.881Z,36.70
2019-01-25T05:32:23.526Z,37.20
2019-01-25T05:34:54.574Z,38.33
2019-01-25T05:37:25.663Z,36.57
2019-01-25T05:39:59.573Z,36.17
2019-01-25T05:42:32.112Z,39.77
2019-01-25T05:45:08.579Z,34.53
2019-01-25T05:47:43.543Z,37.13
2019-01-25T05:50:15.255Z,38.47
2019-01-25T05:52:45.882Z,35.07
2019-01-25T05:55:23.233Z,38.30
2019-01-25T05:58:00.486Z,36.10
2019-01-25T06:00:37.296Z,37.90
2019-01-25T06:03:09.990Z,37.33
2019-01-25T06:05:42.840Z,36.90
2019-01-25T06:08:33.177Z,39.57
2019-01-25T06:11:10.938Z,39.70
2019-01-25T06:13:45.673Z,39.33
2019-01-25T06:16:16.639Z,38.03
2019-01-25T06:18:47.219Z,38.47
2019-01-25T06:21:18.215Z,39.07
2019-01-25T06:23:52.646Z,38.70
2019-01-25T06:26:23.101Z,37.03
2019-01-25T06:28:56.539Z,38.67
2019-01-25T06:31:30.097Z,38.93
2019-01-25T06:34:00.826Z,41.40
2019-01-25T06:36:31.943Z,38.53
2019-01-25T06:39:02.799Z,39.43
2019-01-25T06:41:33.245Z,38.60
2019-01-25T06:44:03.616Z,37.63
2019-01-25T06:46:34.352Z,40.83
2019-01-25T06:49:08.180Z,40.03
2019-01-25T06:51:38.567Z,39.17
2019-01-25T06:54:12.064Z,39.23
2019-01-25T06:56:42.997Z,38.93
2019-01-25T06:59:19.234Z,37.93
2019-01-25T07:02:08.760Z,39.07
2019-01-25T07:04:40.623Z,38.00
2019-01-25T07:07:23.278Z,38.57
2019-01-25T07:09:56.913Z,40.43
2019-01-25T07:12:29.743Z,39.87
2019-01-25T07:15:00.869Z,35.73
2019-01-25T07:17:31.768Z,40.73
2019-01-25T07:20:02.275Z,39.30
2019-01-25T07:22:35.794Z,41.83
2019-01-25T07:25:09.096Z,47.23
2019-01-25T07:27:39.709Z,44.00
2019-01-25T07:30:16.957Z,43.20
2019-01-25T07:32:47.594Z,44.90
2019-01-25T07:35:21.102Z,49.03
2019-01-25T07:37:51.769Z,51.70
2019-01-25T07:40:22.424Z,48.67
2019-01-25T07:42:53.370Z,47.67
2019-01-25T07:45:24.467Z,48.27
2019-01-25T07:47:55.236Z,49.43
2019-01-25T07:50:25.862Z,49.07
2019-01-25T07:52:58.634Z,49.97
2019-01-25T07:55:29.395Z,46.13
2019-01-25T07:57:59.898Z,46.97
2019-01-25T08:00:31.573Z,48.63
2019-01-25T08:03:07.750Z,47.83
2019-01-25T08:05:45.214Z,50.30
2019-01-25T08:08:17.207Z,46.60
2019-01-25T08:10:49.948Z,44.13
2019-01-25T08:13:22.461Z,47.57
2019-01-25T08:15:53.212Z,46.63
2019-01-25T08:18:24.089Z,46.07
2019-01-25T08:20:54.884Z,48.60
2019-01-25T08:23:25.586Z,49.80
2019-01-25T08:25:59.775Z,50.60
2019-01-25T08:28:30.685Z,49.07
2019-01-25T08:31:01.244Z,48.07
2019-01-25T08:33:31.789Z,49.00
2019-01-25T08:36:03.983Z,51.13
2019-01-25T08:38:35.673Z,46.83
2019-01-25T08:41:07.709Z,45.13
2019-01-25T08:43:38.233Z,47.10
2019-01-25T08:46:14.126Z,47.60
2019-01-25T08:48:47.985Z,48.00
2019-01-25T08:51:18.715Z,46.20
2019-01-25T08:53:49.471Z,46.67
2019-01-25T08:56:20.278Z,46.90
2019-01-25T08:58:51.471Z,48.40
2019-01-25T09:01:25.319Z,47.97
2019-01-25T09:03:57.301Z,50.13
2019-01-25T09:06:28.104Z,49.10
2019-01-25T09:09:00.242Z,48.57
2019-01-25T09:11:32.658Z,49.20
2019-01-25T09:14:03.626Z,51.03
2019-01-25T09:16:40.146Z,49.33
2019-01-25T09:19:16.718Z,47.50
2019-01-25T09:21:47.521Z,47.23
2019-01-25T09:24:32.224Z,50.47
2019-01-25T09:27:06.578Z,48.83
2019-01-25T09:29:40.120Z,48.93
2019-01-25T09:32:18.776Z,50.63
2019-01-25T09:34:49.482Z,49.87
2019-01-25T09:37:24.086Z,49.80
2019-01-25T09:39:54.929Z,52.70
2019-01-25T09:42:32.467Z,48.93
2019-01-25T09:45:08.292Z,48.83
2019-01-25T09:47:43.401Z,49.17
2019-01-25T09:50:21.069Z,47.43
2019-01-25T09:52:56.287Z,49.73
2019-01-25T09:55:27.385Z,51.57
2019-01-25T09:58:04.740Z,50.03
2019-01-25T10:00:53.393Z,52.40
2019-01-25T10:03:27.101Z,52.77
2019-01-25T10:05:57.857Z,50.53
2019-01-25T10:08:30.790Z,49.60
2019-01-25T10:11:08.718Z,47.60
2019-01-25T10:13:39.395Z,49.37
2019-01-25T10:16:16.357Z,50.00
2019-01-25T10:18:49.059Z,53.47
2019-01-25T10:21:21.365Z,50.40
2019-01-25T10:23:59.332Z,48.90
2019-01-25T10:26:33.226Z,51.07
2019-01-25T10:29:06.927Z,47.90
2019-01-25T10:31:38.569Z,48.67
2019-01-25T10:34:09.184Z,48.83
2019-01-25T10:36:42.049Z,49.60
2019-01-25T10:39:13.474Z,48.33
2019-01-25T10:41:47.144Z,48.87
2019-01-25T10:44:17.953Z,48.23
2019-01-25T10:46:52.998Z,51.37
2019-01-25T10:49:47.501Z,50.80
2019-01-25T10:52:25.530Z,49.53
2019-01-25T10:54:56.625Z,49.27
2019-01-25T10:57:29.726Z,47.60
2019-01-25T11:00:04.015Z,46.30
2019-01-25T11:02:39.333Z,44.87
2019-01-25T11:05:15.090Z,41.60
2019-01-25T11:07:48.938Z,38.97
2019-01-25T11:10:25.186Z,44.33
2019-01-25T11:13:02.232Z,40.17
2019-01-25T11:15:36.684Z,41.33
2019-01-25T11:18:10.846Z,40.60
2019-01-25T11:20:41.433Z,41.80
2019-01-25T11:23:13.364Z,39.40
2019-01-25T11:25:46.242Z,39.30
2019-01-25T11:28:16.706Z,38.03
2019-01-25T11:30:49.707Z,37.73
2019-01-25T11:33:24.130Z,35.67
2019-01-25T11:35:57.225Z,36.87
2019-01-25T11:38:31.200Z,36.33
2019-01-25T11:41:06.345Z,37.13
2019-01-25T11:43:43.054Z,35.67
2019-01-25T11:46:18.668Z,35.33
2019-01-25T11:51:45.115Z,33.83
2019-01-25T11:54:20.066Z,35.80
2019-01-25T11:56:55.392Z,33.27
2019-01-25T11:59:29.930Z,35.60
2019-01-25T12:02:03.487Z,33.43
2019-01-25T12:04:39.025Z,32.17
2019-01-25T12:07:14.799Z,32.20
2019-01-25T12:10:03.048Z,32.00
2019-01-25T12:12:36.795Z,33.37
2019-01-25T12:15:11.550Z,31.10
2019-01-25T12:17:50.531Z,28.43
2019-01-25T12:20:32.985Z,33.17
2019-01-25T12:23:06.445Z,30.70
2019-01-25T12:25:55.148Z,33.77
2019-01-25T12:28:37.436Z,32.27
2019-01-25T12:31:16.588Z,33.80
2019-01-25T12:33:51.341Z,33.03
2019-01-25T12:36:21.805Z,35.10
2019-01-25T12:38:52.267Z,30.23
2019-01-25T12:41:22.845Z,31.73
2019-01-25T12:43:58.019Z,30.43
2019-01-25T12:46:29.995Z,30.23
2019-01-25T12:49:03.625Z,29.07
2019-01-25T12:51:58.716Z,29.00
2019-01-25T12:54:30.712Z,29.63
2019-01-25T12:57:06.042Z,28.13
2019-01-25T12:59:40.171Z,28.97
2019-01-25T13:02:10.602Z,28.27
2019-01-25T13:04:44.162Z,27.00
2019-01-25T13:07:18.163Z,25.77
2019-01-25T13:09:48.778Z,27.00
2019-01-25T13:12:19.649Z,35.87
2019-01-25T13:14:51.162Z,26.37
2019-01-25T13:17:24.088Z,23.50
2019-01-25T13:19:57.154Z,21.97
2019-01-25T13:22:28.180Z,21.90
2019-01-25T13:25:00.811Z,22.73
2019-01-25T13:27:31.272Z,23.30
2019-01-25T13:30:03.165Z,22.00
2019-01-25T13:32:41.597Z,21.97
2019-01-25T13:35:12.453Z,23.73
2019-01-25T13:37:49.565Z,23.20
2019-01-25T13:40:23.642Z,20.77
2019-01-25T13:43:06.909Z,20.93
2019-01-25T13:45:37.228Z,19.87
2019-01-25T13:48:08.012Z,22.77
2019-01-25T13:50:39.748Z,22.00
2019-01-25T13:53:12.210Z,22.90
2019-01-25T13:55:45.264Z,22.07
2019-01-25T13:58:15.876Z,23.03
2019-01-25T14:00:46.643Z,22.33
2019-01-25T14:03:20.509Z,24.03
2019-01-25T14:05:57.410Z,22.90
2019-01-25T14:08:29.484Z,20.67
2019-01-25T14:11:00.555Z,21.30
2019-01-25T14:13:34.175Z,20.47
2019-01-25T14:16:03.480Z,19.43
2019-01-25T14:18:36.969Z,18.30
2019-01-25T14:21:08.891Z,20.27
2019-01-25T14:23:40.835Z,19.00
2019-01-25T14:26:15.470Z,18.47
2019-01-25T14:28:45.876Z,18.43
2019-01-25T14:31:20.121Z,18.00
2019-01-25T14:33:54.147Z,16.77
2019-01-25T14:36:27.957Z,17.10
2019-01-25T14:38:58.390Z,16.17
2019-01-25T14:41:33.173Z,17.10
2019-01-25T14:44:07.633Z,16.33
2019-01-25T14:46:40.973Z,15.87
2019-01-25T14:49:11.886Z,16.87
2019-01-25T14:51:45.085Z,17.20
2019-01-25T14:54:18.910Z,17.80
2019-01-25T14:56:50.393Z,17.77
2019-01-25T14:59:27.826Z,19.80
2019-01-25T15:02:01.743Z,17.93
2019-01-25T15:04:34.080Z,18.07
2019-01-25T15:07:08.594Z,19.00
2019-01-25T15:09:49.932Z,20.00
2019-01-25T15:12:34.472Z,18.20
2019-01-25T15:15:16.158Z,20.03
2019-01-25T15:17:50.342Z,19.03
2019-01-25T15:20:22.199Z,18.20
2019-01-25T15:23:02.233Z,20.70
2019-01-25T15:25:33.123Z,20.27
2019-01-25T15:28:04.028Z,19.70
2019-01-25T15:30:36.832Z,18.37
2019-01-25T15:33:07.547Z,21.03
2019-01-25T15:35:40.108Z,21.23
2019-01-25T15:38:12.132Z,18.83
2019-01-25T15:40:44.517Z,19.20
2019-01-25T15:43:21.470Z,21.60
2019-01-25T15:45:55.468Z,17.43
2019-01-25T15:48:26.147Z,21.60
2019-01-25T15:50:58.354Z,18.80
2019-01-25T15:53:29.036Z,17.57
2019-01-25T15:56:01.427Z,16.83
2019-01-25T15:58:47.316Z,19.27
2019-01-25T16:01:22.835Z,16.03
2019-01-25T16:03:59.188Z,18.13
2019-01-25T16:06:33.788Z,16.60
2019-01-25T16:09:06.150Z,17.73
2019-01-25T16:12:02.685Z,18.83
2019-01-25T16:14:38.993Z,16.77
2019-01-25T16:17:14.441Z,16.00
2019-01-25T16:19:46.696Z,15.80
2019-01-25T16:22:25.961Z,17.67
2019-01-25T16:24:56.384Z,17.47
2019-01-25T16:27:28.790Z,17.10
2019-01-25T16:29:59.346Z,19.27
2019-01-25T16:32:30.532Z,19.60
2019-01-25T16:35:01.356Z,18.67
2019-01-25T16:37:34.322Z,19.07
2019-01-25T16:40:06.022Z,17.77
2019-01-25T16:42:40.967Z,18.67
2019-01-25T16:45:20.972Z,18.67
2019-01-25T16:47:54.492Z,17.83
2019-01-25T16:50:30.895Z,18.83
2019-01-25T16:53:02.966Z,19.07
2019-01-25T16:55:39.944Z,19.27
2019-01-25T16:58:13.470Z,19.93
2019-01-25T17:00:48.648Z,18.70
2019-01-25T17:03:26.011Z,19.10
2019-01-25T17:05:59.098Z,18.83
2019-01-25T17:08:32.976Z,20.10
2019-01-25T17:11:06.927Z,18.83
2019-01-25T17:13:40.581Z,19.87
2019-01-25T17:16:32.845Z,18.63
2019-01-25T17:19:05.509Z,17.67
2019-01-25T17:21:36.120Z,18.73
2019-01-25T17:24:07.266Z,19.37
2019-01-25T17:26:37.975Z,20.57
2019-01-25T17:29:13.156Z,18.47
2019-01-25T17:31:47.974Z,20.03
2019-01-25T17:34:18.642Z,19.00
2019-01-25T17:36:54.792Z,20.57
2019-01-25T17:39:25.350Z,21.73
2019-01-25T17:41:57.903Z,20.93
2019-01-25T17:44:28.645Z,20.73
2019-01-25T17:47:03.770Z,20.93
2019-01-25T17:49:34.698Z,20.53
2019-01-25T17:52:09.080Z,18.93
2019-01-25T17:54:42.882Z,21.17
2019-01-25T17:57:23.256Z,21.17
2019-01-25T18:00:09.765Z,19.33
2019-01-25T18:02:40.299Z,19.97
2019-01-25T18:05:11.400Z,18.83
2019-01-25T18:07:42.096Z,18.03
2019-01-25T18:10:17.107Z,18.37
2019-01-25T18:12:49.459Z,19.30
2019-01-25T18:15:21.536Z,18.17
2019-01-25T18:17:55.366Z,18.83
2019-01-25T18:20:26.142Z,16.87
2019-01-25T18:23:00.295Z,18.30
2019-01-25T18:25:37.633Z,18.20
2019-01-25T18:28:17.802Z,16.87
2019-01-25T18:30:53.377Z,17.97
2019-01-25T18:33:26.921Z,17.13
2019-01-25T18:36:00.100Z,16.23
2019-01-25T18:38:33.883Z,17.03
2019-01-25T18:41:07.656Z,16.63
2019-01-25T18:43:38.514Z,15.57
2019-01-25T18:46:09.454Z,16.40
2019-01-25T18:48:40.401Z,17.10
2019-01-25T18:51:16.055Z,17.43
2019-01-25T18:53:46.770Z,17.50
2019-01-25T18:56:18.814Z,16.70
2019-01-25T18:58:53.563Z,18.23
2019-01-25T19:01:25.557Z,15.47
2019-01-25T19:03:56.795Z,17.50
2019-01-25T19:06:32.080Z,16.47
2019-01-25T19:09:05.960Z,17.80
2019-01-25T19:11:41.223Z,16.07
2019-01-25T19:14:12.159Z,16.00
2019-01-25T19:16:48.472Z,18.63
2019-01-25T19:19:22.531Z,16.00
2019-01-25T19:21:59.432Z,14.87
2019-01-25T19:24:30.120Z,16.70
2019-01-25T19:27:02.812Z,17.13
2019-01-25T19:29:36.826Z,16.37
2019-01-25T19:32:10.812Z,17.60
2019-01-25T19:34:46.031Z,16.83
2019-01-25T19:37:31.450Z,19.70
2019-01-25T19:40:12.862Z,15.33
2019-01-25T19:43:00.457Z,18.27
2019-01-25T19:45:31.074Z,18.07
2019-01-25T19:48:06.683Z,18.57
2019-01-25T19:50:44.347Z,19.10
2019-01-25T19:53:33.270Z,17.73
2019-01-25T19:56:12.098Z,18.07
2019-01-25T19:58:48.659Z,18.63
2019-01-25T20:01:23.667Z,18.40
2019-01-25T20:03:57.305Z,19.57
2019-01-25T20:06:29.988Z,17.50
2019-01-25T20:09:03.208Z,18.83
2019-01-25T20:11:39.234Z,16.47
2019-01-25T20:14:11.430Z,18.50
2019-01-25T20:16:46.847Z,17.97
2019-01-25T20:19:17.581Z,18.93
2019-01-25T20:21:48.433Z,20.00
2019-01-25T20:24:28.526Z,19.50
2019-01-25T20:27:08.428Z,19.53
2019-01-25T20:29:50.777Z,19.27
2019-01-25T20:32:23.089Z,20.50
2019-01-25T20:35:02.647Z,20.57
2019-01-25T20:37:40.939Z,19.47
2019-01-25T20:40:13.394Z,21.63
2019-01-25T20:42:46.997Z,21.73
2019-01-25T20:45:26.846Z,21.93
2019-01-25T20:47:52.826Z,21.50
2019-01-25T20:50:28.730Z,22.10
2019-01-25T20:53:03.576Z,23.17
2019-01-25T20:55:37.342Z,20.17
2019-01-25T20:58:11.869Z,22.93
2019-01-25T21:00:53.114Z,21.70
2019-01-25T21:03:29.305Z,22.00
2019-01-25T21:06:02.954Z,25.17
2019-01-25T21:08:40.651Z,25.23
2019-01-25T21:11:13.033Z,23.30
2019-01-25T21:13:43.594Z,24.63
2019-01-25T21:16:17.126Z,24.27
2019-01-25T21:18:51.062Z,24.90
2019-01-25T21:21:24.717Z,26.17
2019-01-25T21:23:55.392Z,25.63
2019-01-25T21:26:36.261Z,25.50
2019-01-25T21:29:08.747Z,26.03
2019-01-25T21:31:39.989Z,28.07
2019-01-25T21:34:16.385Z,25.47
2019-01-25T21:36:47.203Z,26.17
2019-01-25T21:39:20.962Z,27.57
2019-01-25T21:41:54.017Z,29.10
2019-01-25T21:44:27.840Z,24.73
2019-01-25T21:47:00.736Z,25.33
2019-01-25T21:49:35.523Z,26.70
2019-01-25T21:52:09.439Z,26.23
2019-01-25T21:54:40.706Z,28.07
2019-01-25T21:57:14.718Z,26.67
2019-01-25T21:59:49.212Z,27.70
2019-01-25T22:02:22.793Z,25.20
2019-01-25T22:04:53.544Z,27.03
2019-01-25T22:07:27.349Z,24.23
2019-01-25T22:09:58.223Z,25.27
2019-01-25T22:12:29.198Z,23.30
2019-01-25T22:15:03.285Z,25.77
2019-01-25T22:17:34.073Z,22.47
2019-01-25T22:20:11.078Z,22.67
2019-01-25T22:22:49.266Z,23.57
2019-01-25T22:25:23.185Z,22.47
2019-01-25T22:28:00.179Z,21.80
2019-01-25T22:30:30.989Z,21.73
2019-01-25T22:33:10.730Z,19.50
2019-01-25T22:35:41.533Z,21.17
2019-01-25T22:38:20.158Z,21.37
2019-01-25T22:40:53.625Z,22.70
2019-01-25T22:43:25.767Z,22.63
2019-01-25T22:45:58.727Z,21.53
2019-01-25T22:48:31.281Z,22.40
2019-01-25T22:51:27.726Z,19.60
2019-01-25T22:54:02.116Z,23.10
2019-01-25T22:56:37.610Z,20.97
2019-01-25T22:59:11.077Z,22.73
2019-01-25T23:01:41.583Z,22.83
2019-01-25T23:04:51.078Z,20.77
2019-01-25T23:07:35.048Z,20.87
2019-01-25T23:10:22.754Z,20.97
2019-01-25T23:12:57.543Z,20.80
2019-01-25T23:15:32.525Z,20.43
2019-01-25T23:18:07.673Z,21.50
2019-01-25T23:20:39.895Z,20.17
2019-01-25T23:23:12.313Z,21.17
2019-01-25T23:25:44.630Z,19.93
2019-01-25T23:28:15.410Z,20.83
2019-01-25T23:30:46.266Z,19.03
2019-01-25T23:33:17.439Z,20.40
2019-01-25T23:35:52.563Z,20.13
2019-01-25T23:38:28.202Z,20.70
2019-01-25T23:40:59.163Z,21.37
2019-01-25T23:43:35.023Z,19.10
2019-01-25T23:46:13.855Z,18.57
2019-01-25T23:48:45.299Z,20.43
2019-01-25T23:51:23.049Z,19.10
2019-01-25T23:53:56.555Z,18.90
2019-01-25T23:56:27.340Z,19.90
2019-01-25T23:59:01.272Z,19.63
